Time;durP1;ratioP1;P1;durP2;ratioP2;P2;SDS_P1;SDS_P2;PMS_P1;PMS_P2;Temp;Humidity;BMP_temperature;BMP_pressure;BME280_temperature;BME280_humidity;BME280_pressure;Samples;Min_cycle;Max_cycle;Signal;HPM_P1;HPM_P2
2022/08/31 00:04:40;;;;;;;8.48;6.90;;;;;;;;;;4984005;28;20044;-61
2022/08/31 00:07:06;;;;;;;7.93;6.32;;;;;;;;;;4985158;28;20038;-61
2022/08/31 00:09:31;;;;;;;7.63;6.40;;;;;;;;;;4984411;28;20541;-61
2022/08/31 00:11:57;;;;;;;7.53;6.82;;;;;;;;;;4984709;28;20023;-61
2022/08/31 00:14:22;;;;;;;7.10;6.50;;;;;;;;;;4983958;28;20038;-61
2022/08/31 00:16:48;;;;;;;7.43;6.72;;;;;;;;;;4985455;28;20031;-61
2022/08/31 00:19:14;;;;;;;9.38;6.60;;;;;;;;;;4984704;28;20040;-62
2022/08/31 00:21:39;;;;;;;8.65;6.85;;;;;;;;;;4983964;28;20027;-61
2022/08/31 00:24:04;;;;;;;8.55;6.75;;;;;;;;;;4983726;28;20061;-61
2022/08/31 00:26:30;;;;;;;7.03;6.00;;;;;;;;;;4985152;28;20038;-62
2022/08/31 00:28:55;;;;;;;7.43;6.65;;;;;;;;;;4984911;28;20512;-61
2022/08/31 00:31:20;;;;;;;10.10;6.55;;;;;;;;;;4984678;28;20022;-61
2022/08/31 00:33:51;;;;;;;7.60;6.70;;;;;;;;;;4984834;28;20070;-61
2022/08/31 00:36:16;;;;;;;6.63;6.00;;;;;;;;;;4957869;28;20022;-61
2022/08/31 00:38:42;;;;;;;8.05;6.25;;;;;;;;;;4983656;28;20033;-60
2022/08/31 00:41:08;;;;;;;8.38;7.10;;;;;;;;;;4984096;28;20027;-61
2022/08/31 00:43:42;;;;;;;8.93;6.15;;;;;;;;;;4984278;28;20027;-60
2022/08/31 00:46:09;;;;;;;7.22;6.63;;;;;;;;;;4984264;28;20026;-60
2022/08/31 00:48:36;;;;;;;8.48;6.78;;;;;;;;;;4984941;28;20473;-60
2022/08/31 00:51:02;;;;;;;7.65;6.30;;;;;;;;;;4982396;28;20026;-60
2022/08/31 00:53:28;;;;;;;8.52;6.40;;;;;;;;;;4983587;28;20026;-61
2022/08/31 00:55:53;;;;;;;9.57;6.93;;;;;;;;;;4983712;28;20034;-62
2022/08/31 00:58:18;;;;;;;8.40;6.18;;;;;;;;;;4985056;28;20046;-61
2022/08/31 01:00:44;;;;;;;8.27;6.40;;;;;;;;;;4983852;28;20034;-62
2022/08/31 01:03:10;;;;;;;6.82;5.60;;;;;;;;;;4984586;28;20031;-61
2022/08/31 01:05:35;;;;;;;9.88;6.45;;;;;;;;;;4985716;28;20478;-60
2022/08/31 01:08:01;;;;;;;10.82;7.32;;;;;;;;;;4974997;28;20670;-60
2022/08/31 01:10:29;;;;;;;10.00;5.80;;;;;;;;;;4987110;28;20037;-62
2022/08/31 01:12:55;;;;;;;7.18;6.18;;;;;;;;;;4986908;28;20034;-61
2022/08/31 01:15:20;;;;;;;9.23;7.00;;;;;;;;;;4988177;28;20029;-61
2022/08/31 01:17:49;;;;;;;6.60;5.72;;;;;;;;;;4987496;28;20046;-62
2022/08/31 01:20:20;;;;;;;6.90;6.22;;;;;;;;;;4986800;28;20129;-61
2022/08/31 01:22:55;;;;;;;9.52;6.32;;;;;;;;;;4987515;28;20038;-61
2022/08/31 01:25:20;;;;;;;8.83;6.50;;;;;;;;;;4987741;28;20394;-61
2022/08/31 01:27:45;;;;;;;8.70;6.60;;;;;;;;;;4986771;28;20499;-62
2022/08/31 01:30:12;;;;;;;9.20;7.07;;;;;;;;;;4988044;28;20030;-61
2022/08/31 01:32:37;;;;;;;7.38;6.57;;;;;;;;;;4986765;28;20080;-62
2022/08/31 01:35:03;;;;;;;10.05;6.65;;;;;;;;;;4986903;28;20407;-62
2022/08/31 01:37:29;;;;;;;8.02;5.90;;;;;;;;;;4987108;28;20014;-61
2022/08/31 01:39:55;;;;;;;7.38;6.68;;;;;;;;;;4987382;28;20745;-61
2022/08/31 01:42:20;;;;;;;6.15;5.65;;;;;;;;;;4987933;28;20033;-62
2022/08/31 01:44:46;;;;;;;7.72;6.38;;;;;;;;;;4986135;28;20042;-62
2022/08/31 01:47:11;;;;;;;6.22;5.63;;;;;;;;;;4987062;28;20080;-61
2022/08/31 01:49:37;;;;;;;9.27;6.43;;;;;;;;;;4987135;28;20625;-61
2022/08/31 01:52:03;;;;;;;10.27;7.25;;;;;;;;;;4986679;28;20601;-60
2022/08/31 01:54:28;;;;;;;7.80;6.60;;;;;;;;;;4986688;28;20034;-60
2022/08/31 01:56:54;;;;;;;6.90;5.70;;;;;;;;;;4986256;28;20022;-62
2022/08/31 01:59:20;;;;;;;7.93;7.07;;;;;;;;;;4986487;28;20034;-62
2022/08/31 02:01:47;;;;;;;6.63;5.70;;;;;;;;;;4987041;28;20033;-61
2022/08/31 02:04:13;;;;;;;7.35;6.60;;;;;;;;;;4986443;28;20117;-60
2022/08/31 02:06:43;;;;;;;6.95;6.15;;;;;;;;;;4985950;28;20022;-60
2022/08/31 02:09:09;;;;;;;7.45;6.13;;;;;;;;;;4986587;28;20045;-59
2022/08/31 02:11:35;;;;;;;11.95;7.13;;;;;;;;;;4985672;28;20053;-61
2022/08/31 02:14:00;;;;;;;7.90;6.75;;;;;;;;;;4985607;28;20070;-61
2022/08/31 02:16:25;;;;;;;6.85;5.70;;;;;;;;;;4985224;28;20125;-60
2022/08/31 02:18:51;;;;;;;6.72;6.10;;;;;;;;;;4985744;28;20034;-59
2022/08/31 02:21:16;;;;;;;8.07;7.15;;;;;;;;;;4986703;28;20057;-63
2022/08/31 02:23:42;;;;;;;8.18;6.25;;;;;;;;;;4985749;28;20326;-60
2022/08/31 02:26:07;;;;;;;7.00;6.30;;;;;;;;;;4986018;28;20041;-61
2022/08/31 02:28:33;;;;;;;7.63;6.20;;;;;;;;;;4985820;28;20026;-59
2022/08/31 02:30:58;;;;;;;8.63;6.70;;;;;;;;;;4985349;28;20026;-61
2022/08/31 02:33:23;;;;;;;8.38;6.53;;;;;;;;;;4985617;28;20492;-62
2022/08/31 02:35:49;;;;;;;7.63;6.78;;;;;;;;;;4971830;28;20369;-60
2022/08/31 02:38:14;;;;;;;6.95;6.10;;;;;;;;;;4985199;28;20037;-62
2022/08/31 02:40:40;;;;;;;8.07;6.63;;;;;;;;;;4985382;28;20028;-60
2022/08/31 02:43:06;;;;;;;7.85;7.03;;;;;;;;;;4984919;28;20113;-63
2022/08/31 02:45:31;;;;;;;7.95;6.15;;;;;;;;;;4986514;28;20115;-62
2022/08/31 02:47:56;;;;;;;8.68;6.80;;;;;;;;;;4985968;28;20030;-62
2022/08/31 02:50:22;;;;;;;7.68;6.97;;;;;;;;;;4985315;28;20693;-65
2022/08/31 02:52:47;;;;;;;6.38;5.78;;;;;;;;;;4985958;28;20034;-64
2022/08/31 02:55:12;;;;;;;8.80;6.43;;;;;;;;;;4985859;28;20512;-65
2022/08/31 02:57:41;;;;;;;6.63;6.03;;;;;;;;;;4984386;28;20022;-64
2022/08/31 03:00:07;;;;;;;7.07;6.38;;;;;;;;;;4958939;28;20556;-67
2022/08/31 03:02:32;;;;;;;8.55;6.20;;;;;;;;;;4985882;28;20052;-65
2022/08/31 03:05:01;;;;;;;8.35;6.45;;;;;;;;;;4985858;28;20112;-67
2022/08/31 03:07:26;;;;;;;8.73;5.70;;;;;;;;;;4985516;28;20031;-68
2022/08/31 03:09:52;;;;;;;8.23;6.90;;;;;;;;;;4967967;28;20445;-67
2022/08/31 03:12:17;;;;;;;7.10;6.40;;;;;;;;;;4984530;28;20677;-67
2022/08/31 03:14:42;;;;;;;7.70;6.40;;;;;;;;;;4985388;28;20414;-68
2022/08/31 03:17:07;;;;;;;12.68;7.05;;;;;;;;;;4984723;28;20503;-65
2022/08/31 03:19:33;;;;;;;6.63;5.93;;;;;;;;;;4984895;28;20097;-69
2022/08/31 03:21:58;;;;;;;9.05;6.22;;;;;;;;;;4983507;28;20037;-68
2022/08/31 03:24:24;;;;;;;6.93;6.20;;;;;;;;;;4984995;28;20517;-66
2022/08/31 03:26:49;;;;;;;7.35;6.57;;;;;;;;;;4984616;28;20606;-61
2022/08/31 03:29:14;;;;;;;8.50;6.70;;;;;;;;;;4984084;28;20026;-61
2022/08/31 03:31:40;;;;;;;8.95;6.28;;;;;;;;;;4983155;28;20445;-61
2022/08/31 03:34:05;;;;;;;7.38;6.65;;;;;;;;;;4983612;28;20062;-61
2022/08/31 03:36:30;;;;;;;7.10;6.47;;;;;;;;;;4983513;28;20030;-63
2022/08/31 03:38:56;;;;;;;8.27;6.93;;;;;;;;;;4984438;28;20030;-61
2022/08/31 03:41:23;;;;;;;8.32;6.70;;;;;;;;;;4965968;28;20050;-61
2022/08/31 03:43:48;;;;;;;7.35;6.45;;;;;;;;;;4982396;28;20066;-60
2022/08/31 03:46:14;;;;;;;7.65;6.90;;;;;;;;;;4983549;28;20122;-61
2022/08/31 03:48:39;;;;;;;9.02;6.75;;;;;;;;;;4983623;28;20643;-61
2022/08/31 03:51:04;;;;;;;11.00;7.82;;;;;;;;;;4968558;28;20030;-61
2022/08/31 03:53:30;;;;;;;7.95;6.97;;;;;;;;;;4983838;28;20030;-61
2022/08/31 03:56:00;;;;;;;7.78;6.38;;;;;;;;;;4952763;28;21090;-60
2022/08/31 03:58:26;;;;;;;10.38;6.30;;;;;;;;;;4984028;28;20023;-60
2022/08/31 04:00:55;;;;;;;7.85;6.68;;;;;;;;;;4967529;28;20461;-61
2022/08/31 04:03:21;;;;;;;7.40;6.75;;;;;;;;;;4984246;28;20037;-61
2022/08/31 04:05:47;;;;;;;7.20;6.43;;;;;;;;;;4985334;28;20042;-61
2022/08/31 04:08:13;;;;;;;7.03;6.22;;;;;;;;;;4982172;28;20401;-61
2022/08/31 04:10:39;;;;;;;6.85;6.15;;;;;;;;;;4985029;28;20027;-60
2022/08/31 04:13:04;;;;;;;6.88;6.28;;;;;;;;;;4984643;28;20475;-61
2022/08/31 04:15:30;;;;;;;7.47;6.78;;;;;;;;;;4984671;28;20113;-61
2022/08/31 04:17:55;;;;;;;7.10;6.43;;;;;;;;;;4983530;28;20065;-61
2022/08/31 04:20:20;;;;;;;9.73;6.68;;;;;;;;;;4983018;28;20413;-60
2022/08/31 04:22:45;;;;;;;7.75;6.38;;;;;;;;;;4984661;28;20101;-61
2022/08/31 04:25:11;;;;;;;6.93;6.20;;;;;;;;;;4967143;28;20062;-60
2022/08/31 04:27:39;;;;;;;9.48;7.03;;;;;;;;;;4983634;28;20600;-59
2022/08/31 04:30:06;;;;;;;8.10;6.20;;;;;;;;;;4984069;28;20033;-61
2022/08/31 04:32:32;;;;;;;7.00;6.35;;;;;;;;;;4967569;28;20026;-62
2022/08/31 04:34:57;;;;;;;6.47;5.88;;;;;;;;;;4971531;28;20062;-60
2022/08/31 04:37:23;;;;;;;8.25;6.78;;;;;;;;;;4984840;28;20049;-61
2022/08/31 04:39:48;;;;;;;8.25;6.45;;;;;;;;;;4984745;28;20038;-61
2022/08/31 04:42:13;;;;;;;7.20;6.18;;;;;;;;;;4989019;28;20950;-61
2022/08/31 04:44:38;;;;;;;7.18;6.45;;;;;;;;;;4986099;28;20088;-60
2022/08/31 04:47:04;;;;;;;7.78;6.38;;;;;;;;;;4983938;28;20049;-60
2022/08/31 04:49:29;;;;;;;8.13;6.22;;;;;;;;;;4984676;28;20465;-60
2022/08/31 04:51:54;;;;;;;8.15;5.88;;;;;;;;;;4986880;28;20045;-61
2022/08/31 04:54:19;;;;;;;8.15;7.05;;;;;;;;;;4973307;28;20041;-60
2022/08/31 04:56:45;;;;;;;8.63;5.63;;;;;;;;;;4988480;28;20038;-62
2022/08/31 04:59:12;;;;;;;7.35;5.78;;;;;;;;;;4970289;28;20026;-59
2022/08/31 05:01:39;;;;;;;9.27;6.60;;;;;;;;;;4988496;28;20038;-60
2022/08/31 05:04:05;;;;;;;7.13;6.43;;;;;;;;;;4986354;28;20542;-60
2022/08/31 05:06:32;;;;;;;10.77;6.38;;;;;;;;;;4987848;28;20030;-60
2022/08/31 05:09:03;;;;;;;6.55;5.95;;;;;;;;;;4986299;28;20041;-61
2022/08/31 05:11:28;;;;;;;7.30;6.10;;;;;;;;;;4987997;28;20029;-61
2022/08/31 05:13:55;;;;;;;7.18;6.47;;;;;;;;;;4986955;28;20034;-60
2022/08/31 05:16:21;;;;;;;11.65;7.15;;;;;;;;;;4970411;28;20053;-60
2022/08/31 05:18:47;;;;;;;6.90;6.22;;;;;;;;;;4986741;28;20159;-60
2022/08/31 05:21:15;;;;;;;6.57;5.82;;;;;;;;;;4987131;28;20031;-60
2022/08/31 05:23:41;;;;;;;7.90;6.53;;;;;;;;;;4987236;28;20041;-60
2022/08/31 05:26:07;;;;;;;7.15;6.45;;;;;;;;;;4960426;28;20360;-60
2022/08/31 05:28:33;;;;;;;6.90;6.20;;;;;;;;;;4986797;28;20109;-61
2022/08/31 05:30:59;;;;;;;6.70;5.97;;;;;;;;;;4987660;28;20540;-61
2022/08/31 05:33:24;;;;;;;7.40;5.97;;;;;;;;;;4987391;28;20031;-60
2022/08/31 05:35:49;;;;;;;8.38;5.80;;;;;;;;;;4970154;28;20527;-61
2022/08/31 05:38:15;;;;;;;6.40;5.75;;;;;;;;;;4986969;28;20365;-62
2022/08/31 05:40:40;;;;;;;7.30;6.60;;;;;;;;;;4987618;28;20027;-60
2022/08/31 05:43:05;;;;;;;7.05;6.35;;;;;;;;;;4985582;28;20083;-61
2022/08/31 05:45:30;;;;;;;5.85;5.20;;;;;;;;;;4986621;28;20031;-59
2022/08/31 05:47:56;;;;;;;6.22;5.63;;;;;;;;;;4956303;28;20654;-60
2022/08/31 05:50:21;;;;;;;7.20;6.00;;;;;;;;;;4986931;28;20117;-60
2022/08/31 05:52:47;;;;;;;6.93;5.80;;;;;;;;;;4954213;28;20082;-59
2022/08/31 05:55:12;;;;;;;6.45;5.45;;;;;;;;;;4953115;28;20030;-60
2022/08/31 05:57:39;;;;;;;6.60;5.88;;;;;;;;;;4968773;28;20037;-60
2022/08/31 06:00:05;;;;;;;5.68;5.13;;;;;;;;;;4986596;28;20022;-60
2022/08/31 06:02:31;;;;;;;7.95;5.78;;;;;;;;;;4986272;28;20030;-61
2022/08/31 06:04:56;;;;;;;9.15;5.63;;;;;;;;;;4970972;28;20496;-59
2022/08/31 06:07:22;;;;;;;6.57;5.95;;;;;;;;;;4986011;28;20167;-60
2022/08/31 06:09:47;;;;;;;7.18;6.05;;;;;;;;;;4982282;28;20032;-60
2022/08/31 06:12:14;;;;;;;5.32;4.88;;;;;;;;;;4981814;28;20030;-63
2022/08/31 06:14:40;;;;;;;6.75;5.28;;;;;;;;;;4964785;28;20026;-67
2022/08/31 06:17:05;;;;;;;7.10;5.55;;;;;;;;;;4981438;28;20033;-65
2022/08/31 06:19:31;;;;;;;5.60;4.97;;;;;;;;;;4985580;28;20436;-65
2022/08/31 06:21:56;;;;;;;7.50;6.05;;;;;;;;;;4986280;28;20501;-67
2022/08/31 06:24:22;;;;;;;5.57;5.07;;;;;;;;;;4983332;28;20037;-67
2022/08/31 06:26:51;;;;;;;7.22;6.38;;;;;;;;;;4981995;28;20078;-67
2022/08/31 06:29:16;;;;;;;5.72;5.00;;;;;;;;;;4984512;28;20893;-67
2022/08/31 06:31:45;;;;;;;7.30;5.75;;;;;;;;;;4971916;28;20042;-68
2022/08/31 06:34:11;;;;;;;6.97;5.25;;;;;;;;;;4982078;28;20046;-66
2022/08/31 06:36:36;;;;;;;5.70;5.15;;;;;;;;;;4980195;28;20531;-69
2022/08/31 06:39:02;;;;;;;5.95;5.35;;;;;;;;;;4984742;28;20437;-66
2022/08/31 06:41:29;;;;;;;5.68;5.10;;;;;;;;;;4984776;28;20487;-66
2022/08/31 06:43:55;;;;;;;5.28;4.78;;;;;;;;;;4984107;28;20077;-69
2022/08/31 06:46:21;;;;;;;5.10;4.70;;;;;;;;;;4980504;28;20164;-69
2022/08/31 06:48:49;;;;;;;5.47;4.97;;;;;;;;;;4957429;28;20065;-69
2022/08/31 06:51:14;;;;;;;7.03;4.82;;;;;;;;;;4986194;28;20031;-68
2022/08/31 06:53:41;;;;;;;4.90;4.45;;;;;;;;;;4983988;28;20048;-66
2022/08/31 07:05:15;;;;;;;5.95;4.78;;;;;;;;;;4980225;28;20119;-66
2022/08/31 07:07:40;;;;;;;4.60;4.22;;;;;;;;;;4982003;28;20465;-66
2022/08/31 07:10:09;;;;;;;5.18;4.78;;;;;;;;;;4985782;28;20023;-66
2022/08/31 07:12:34;;;;;;;6.57;5.15;;;;;;;;;;4967852;28;20492;-66
2022/08/31 07:14:59;;;;;;;6.82;5.18;;;;;;;;;;4980214;28;20034;-66
2022/08/31 07:17:24;;;;;;;6.78;5.38;;;;;;;;;;4980610;28;20149;-67
2022/08/31 07:19:50;;;;;;;5.07;4.57;;;;;;;;;;4985720;28;20447;-69
2022/08/31 07:22:15;;;;;;;4.63;4.32;;;;;;;;;;4984747;28;20065;-66
2022/08/31 07:24:40;;;;;;;5.82;4.88;;;;;;;;;;4981220;28;20053;-66
2022/08/31 07:27:11;;;;;;;5.38;4.30;;;;;;;;;;4981622;28;20045;-67
2022/08/31 07:29:40;;;;;;;8.60;5.60;;;;;;;;;;4986027;28;20030;-67
2022/08/31 07:32:09;;;;;;;5.43;4.93;;;;;;;;;;4983995;28;20034;-68
2022/08/31 07:34:35;;;;;;;6.90;5.20;;;;;;;;;;4980560;28;20575;-67
2022/08/31 07:42:32;;;;;;;11.00;7.03;;;;;;;;;;4984814;28;21135;-67
2022/08/31 07:44:58;;;;;;;24.25;14.02;;;;;;;;;;4979978;28;20287;-66
2022/08/31 07:47:25;;;;;;;7.85;6.60;;;;;;;;;;4964796;28;20122;-66
2022/08/31 07:49:51;;;;;;;6.28;5.68;;;;;;;;;;4984884;28;20031;-65
2022/08/31 07:52:25;;;;;;;7.07;5.30;;;;;;;;;;4983458;28;20105;-67
2022/08/31 07:54:51;;;;;;;5.60;5.07;;;;;;;;;;4979355;28;20030;-66
2022/08/31 07:57:54;;;;;;;;;;;;;;;;;;;;;
2022/08/31 08:06:27;;;;;;;9.95;5.75;;;;;;;;;;4984324;28;20421;-66
2022/08/31 08:09:04;;;;;;;6.40;5.82;;;;;;;;;;4984050;28;20062;-65
2022/08/31 08:14:38;;;;;;;6.40;4.65;;;;;;;;;;4954260;28;20042;-67
2022/08/31 08:17:07;;;;;;;8.13;5.72;;;;;;;;;;4988097;28;20030;-65
2022/08/31 08:19:33;;;;;;;7.18;6.45;;;;;;;;;;4989014;28;20137;-66
2022/08/31 08:22:02;;;;;;;6.82;5.60;;;;;;;;;;4969905;28;20036;-66
2022/08/31 08:24:28;;;;;;;5.65;5.15;;;;;;;;;;4988732;28;20046;-66
2022/08/31 08:26:53;;;;;;;6.68;5.40;;;;;;;;;;4988680;28;20035;-68
2022/08/31 08:29:19;;;;;;;5.82;5.28;;;;;;;;;;4988106;28;20050;-68
2022/08/31 08:31:53;;;;;;;6.47;5.78;;;;;;;;;;4988155;28;20034;-68
2022/08/31 08:34:22;;;;;;;5.60;5.05;;;;;;;;;;4988420;28;20061;-67
2022/08/31 08:36:47;;;;;;;7.93;6.05;;;;;;;;;;4988367;28;20045;-67
2022/08/31 08:39:12;;;;;;;9.07;6.10;;;;;;;;;;4988784;28;20026;-67
2022/08/31 08:41:40;;;;;;;5.75;5.18;;;;;;;;;;4987506;28;20026;-69
2022/08/31 08:44:13;;;;;;;5.90;5.40;;;;;;;;;;4988420;28;20317;-66
2022/08/31 08:46:46;;;;;;;8.55;5.90;;;;;;;;;;4988452;28;20931;-67
2022/08/31 08:49:34;;;;;;;9.55;5.72;;;;;;;;;;4987559;28;20048;-67
2022/08/31 08:52:25;;;;;;;6.03;5.43;;;;;;;;;;4987400;28;20670;-67
2022/08/31 08:54:52;;;;;;;10.68;6.75;;;;;;;;;;4927528;29;20047;-67
2022/08/31 08:57:30;;;;;;;8.38;5.25;;;;;;;;;;4927886;29;20079;-67
2022/08/31 08:59:57;;;;;;;10.55;5.32;;;;;;;;;;4927424;29;20130;-66
2022/08/31 09:02:27;;;;;;;8.68;5.20;;;;;;;;;;4926625;29;20066;-66
2022/08/31 09:05:04;;;;;;;5.35;4.68;;;;;;;;;;4911484;29;20043;-69
2022/08/31 09:07:38;;;;;;;6.63;5.68;;;;;;;;;;4926825;29;20110;-68
2022/08/31 09:10:26;;;;;;;6.40;5.57;;;;;;;;;;4927497;29;20082;-67
2022/08/31 09:13:08;;;;;;;6.13;5.53;;;;;;;;;;4926908;29;20044;-66
2022/08/31 09:15:51;;;;;;;8.20;4.93;;;;;;;;;;4927107;29;20059;-69
2022/08/31 09:18:26;;;;;;;5.90;5.30;;;;;;;;;;4925376;29;20118;-69
2022/08/31 09:21:19;;;;;;;5.95;5.45;;;;;;;;;;4926999;29;20039;-69
2022/08/31 09:23:47;;;;;;;7.03;6.30;;;;;;;;;;4920390;29;20573;-69
2022/08/31 09:26:16;;;;;;;6.72;6.13;;;;;;;;;;4927430;29;20054;-67
2022/08/31 09:28:46;;;;;;;13.00;6.57;;;;;;;;;;4925497;29;20032;-66
2022/08/31 09:31:45;;;;;;;7.18;6.00;;;;;;;;;;4944797;28;21015;-70
2022/08/31 09:34:31;;;;;;;7.05;6.35;;;;;;;;;;4934052;28;20054;-70
2022/08/31 09:37:14;;;;;;;6.32;5.70;;;;;;;;;;4969277;28;20030;-69
2022/08/31 09:39:40;;;;;;;12.95;6.03;;;;;;;;;;4986248;28;20058;-68
2022/08/31 09:42:27;;;;;;;8.27;5.93;;;;;;;;;;4987908;28;20037;-67
2022/08/31 09:44:54;;;;;;;7.80;6.55;;;;;;;;;;4986721;28;20030;-70
2022/08/31 09:47:47;;;;;;;8.10;6.43;;;;;;;;;;4986695;28;20037;-69
2022/08/31 09:50:31;;;;;;;6.28;5.78;;;;;;;;;;4986993;28;20035;-69
2022/08/31 09:56:12;;;;;;;5.85;5.25;;;;;;;;;;4987393;28;20021;-68
2022/08/31 09:58:39;;;;;;;8.13;5.72;;;;;;;;;;4988565;28;20065;-69
2022/08/31 10:01:11;;;;;;;5.80;5.30;;;;;;;;;;4987023;28;20034;-69
2022/08/31 10:03:37;;;;;;;9.95;5.55;;;;;;;;;;4986109;28;20038;-70
2022/08/31 10:06:08;;;;;;;6.22;5.65;;;;;;;;;;4987046;28;20034;-69
2022/08/31 10:08:33;;;;;;;8.93;5.85;;;;;;;;;;4986246;28;20026;-68
2022/08/31 10:11:05;;;;;;;6.55;6.05;;;;;;;;;;4987260;28;20022;-69
2022/08/31 10:13:45;;;;;;;7.80;5.90;;;;;;;;;;4986731;28;20022;-69
2022/08/31 10:16:24;;;;;;;7.28;5.80;;;;;;;;;;4987038;28;20027;-69
2022/08/31 10:18:56;;;;;;;6.47;5.93;;;;;;;;;;4987745;28;20542;-69
2022/08/31 10:21:30;;;;;;;6.63;5.95;;;;;;;;;;4992135;28;20034;-70
2022/08/31 10:24:07;;;;;;;6.63;5.97;;;;;;;;;;4990846;28;20158;-68
2022/08/31 10:26:38;;;;;;;11.80;5.38;;;;;;;;;;4993544;28;20038;-69
2022/08/31 10:29:14;;;;;;;7.28;6.32;;;;;;;;;;4986173;28;20497;-69
2022/08/31 10:31:44;;;;;;;7.07;6.10;;;;;;;;;;4984857;28;20022;-68
2022/08/31 10:37:04;;;;;;;7.85;5.72;;;;;;;;;;4985472;28;20036;-68
2022/08/31 10:39:38;;;;;;;8.13;6.30;;;;;;;;;;4985205;28;20029;-61
2022/08/31 10:42:06;;;;;;;6.80;5.80;;;;;;;;;;4986544;28;20490;-62
2022/08/31 10:44:47;;;;;;;5.82;5.32;;;;;;;;;;4986215;28;20027;-69
2022/08/31 10:47:14;;;;;;;8.05;5.93;;;;;;;;;;4985734;28;20038;-63
2022/08/31 10:49:39;;;;;;;10.52;6.43;;;;;;;;;;4984153;28;20038;-66
2022/08/31 10:52:37;;;;;;;7.07;6.40;;;;;;;;;;4986333;28;20045;-67
2022/08/31 10:55:08;;;;;;;6.03;5.45;;;;;;;;;;4940947;28;20054;-66
2022/08/31 10:57:50;;;;;;;5.75;5.07;;;;;;;;;;4984433;28;20026;-62
2022/08/31 11:00:44;;;;;;;6.75;5.93;;;;;;;;;;4968436;28;20173;-60
2022/08/31 11:03:12;;;;;;;7.15;5.90;;;;;;;;;;4986479;28;20090;-67
2022/08/31 11:05:38;;;;;;;5.75;5.22;;;;;;;;;;4985521;28;20030;-64
2022/08/31 11:08:06;;;;;;;7.05;6.28;;;;;;;;;;4985470;28;20130;-63
2022/08/31 11:10:41;;;;;;;10.48;5.82;;;;;;;;;;4984973;28;20110;-61
2022/08/31 11:13:07;;;;;;;;;;;;;;;;;;4986194;28;20034;-61
2022/08/31 11:15:48;;;;;;;10.57;5.95;;;;;;;;;;4985409;28;19909;-61
2022/08/31 11:18:38;;;;;;;9.27;5.93;;;;;;;;;;4984976;28;20022;-60
2022/08/31 11:21:03;;;;;;;7.03;5.18;;;;;;;;;;4985540;28;20108;-61
2022/08/31 11:23:32;;;;;;;6.00;5.50;;;;;;;;;;4985692;28;20053;-61
2022/08/31 11:26:06;;;;;;;5.45;5.03;;;;;;;;;;4983133;28;20097;-60
2022/08/31 11:28:52;;;;;;;7.65;4.70;;;;;;;;;;4985164;28;20061;-61
2022/08/31 11:31:22;;;;;;;6.57;4.93;;;;;;;;;;4984810;28;20069;-61
2022/08/31 11:33:53;;;;;;;6.90;4.85;;;;;;;;;;4984954;28;20062;-60
2022/08/31 11:36:37;;;;;;;5.60;4.97;;;;;;;;;;4985251;28;20030;-60
2022/08/31 11:39:02;;;;;;;7.28;5.45;;;;;;;;;;4985549;28;20476;-60
2022/08/31 11:41:43;;;;;;;6.28;5.03;;;;;;;;;;4984452;28;20034;-59
2022/08/31 11:44:28;;;;;;;5.78;4.78;;;;;;;;;;4985165;28;20452;-60
2022/08/31 11:46:56;;;;;;;;;;;;;;;;;;4985218;28;20428;-60
2022/08/31 11:49:48;;;;;;;10.05;4.90;;;;;;;;;;4983976;28;20044;-60
2022/08/31 11:52:20;;;;;;;5.93;4.75;;;;;;;;;;4981129;28;20754;-61
2022/08/31 11:54:47;;;;;;;6.75;5.75;;;;;;;;;;4984201;28;20030;-62
2022/08/31 11:57:16;;;;;;;7.88;5.22;;;;;;;;;;4983089;28;20057;-59
2022/08/31 11:59:44;;;;;;;6.00;5.43;;;;;;;;;;4983397;28;20077;-64
2022/08/31 12:02:33;;;;;;;4.97;4.57;;;;;;;;;;4983986;28;20560;-62
2022/08/31 12:05:01;;;;;;;4.45;4.10;;;;;;;;;;4903654;29;20459;-62
2022/08/31 12:07:27;;;;;;;6.53;5.25;;;;;;;;;;4903717;29;20080;-62
2022/08/31 12:10:01;;;;;;;6.40;4.97;;;;;;;;;;4904019;29;20836;-62
2022/08/31 12:12:29;;;;;;;5.53;5.03;;;;;;;;;;4904441;29;20043;-62
2022/08/31 12:14:57;;;;;;;6.80;5.13;;;;;;;;;;4903794;29;20060;-63
2022/08/31 12:17:29;;;;;;;5.07;4.63;;;;;;;;;;4903358;29;20096;-63
2022/08/31 12:20:11;;;;;;;8.30;7.13;;;;;;;;;;4903930;29;20032;-64
2022/08/31 12:26:08;;;;;;;9.82;5.45;;;;;;;;;;4903797;29;20200;-63
2022/08/31 12:28:33;;;;;;;6.18;5.57;;;;;;;;;;4885396;29;20040;-63
2022/08/31 12:31:04;;;;;;;6.60;6.00;;;;;;;;;;4884945;29;20039;-64
2022/08/31 12:33:30;;;;;;;6.68;5.60;;;;;;;;;;4884768;29;20388;-63
2022/08/31 12:36:15;;;;;;;6.40;5.68;;;;;;;;;;4883660;29;20044;-64
2022/08/31 12:38:40;;;;;;;9.90;5.85;;;;;;;;;;4882446;29;20157;-63
2022/08/31 12:41:08;;;;;;;7.47;5.60;;;;;;;;;;4885034;29;20084;-62
2022/08/31 12:43:36;;;;;;;6.13;5.53;;;;;;;;;;4902274;29;20654;-64
2022/08/31 12:46:07;;;;;;;5.93;5.43;;;;;;;;;;4902609;29;20044;-62
2022/08/31 12:48:32;;;;;;;6.97;6.10;;;;;;;;;;4903443;29;20518;-61
2022/08/31 12:51:16;;;;;;;6.35;5.72;;;;;;;;;;4905824;29;20032;-66
2022/08/31 12:53:50;;;;;;;6.90;6.30;;;;;;;;;;4903767;29;20031;-62
2022/08/31 12:56:21;;;;;;;7.03;6.43;;;;;;;;;;4901722;29;20043;-63
2022/08/31 12:58:49;;;;;;;6.75;6.15;;;;;;;;;;4902001;29;20035;-63
2022/08/31 13:01:18;;;;;;;6.43;5.93;;;;;;;;;;4901981;29;20039;-67
2022/08/31 13:03:47;;;;;;;10.02;6.03;;;;;;;;;;4906170;29;20104;-63
2022/08/31 13:06:13;;;;;;;9.63;6.40;;;;;;;;;;4967946;28;20039;-65
2022/08/31 13:08:39;;;;;;;6.43;5.90;;;;;;;;;;4968032;28;20023;-66
2022/08/31 13:11:22;;;;;;;9.95;6.35;;;;;;;;;;4969750;28;20528;-66
2022/08/31 13:13:48;;;;;;;6.75;6.15;;;;;;;;;;4968670;28;20056;-67
2022/08/31 13:16:13;;;;;;;8.65;6.70;;;;;;;;;;4967710;28;20033;-66
2022/08/31 13:18:39;;;;;;;15.95;7.28;;;;;;;;;;4967320;28;20106;-66
2022/08/31 13:21:04;;;;;;;10.02;7.00;;;;;;;;;;4968289;28;20030;-64
2022/08/31 13:23:30;;;;;;;7.85;6.97;;;;;;;;;;4967812;28;20073;-65
2022/08/31 13:26:00;;;;;;;8.23;7.43;;;;;;;;;;4967857;28;20035;-66
2022/08/31 13:28:29;;;;;;;7.35;6.68;;;;;;;;;;4966970;28;20034;-65
2022/08/31 13:31:05;;;;;;;10.13;7.00;;;;;;;;;;4967621;28;20501;-65
2022/08/31 13:33:33;;;;;;;7.90;6.88;;;;;;;;;;4968403;28;21691;-66
2022/08/31 13:36:30;;;;;;;7.65;6.95;;;;;;;;;;4986046;28;20065;-66
2022/08/31 13:38:56;;;;;;;7.93;5.80;;;;;;;;;;4986758;28;20026;-65
2022/08/31 13:41:26;;;;;;;11.48;7.07;;;;;;;;;;4969763;28;20033;-64
2022/08/31 13:43:57;;;;;;;8.48;6.10;;;;;;;;;;4986802;28;20026;-65
2022/08/31 13:46:28;;;;;;;5.68;5.18;;;;;;;;;;4986196;28;20037;-66
2022/08/31 13:49:00;;;;;;;6.55;5.95;;;;;;;;;;4985236;28;20114;-63
2022/08/31 13:51:28;;;;;;;6.78;6.18;;;;;;;;;;4985015;28;20041;-66
2022/08/31 13:53:53;;;;;;;6.18;5.65;;;;;;;;;;4986291;28;20404;-66
2022/08/31 13:59:18;;;;;;;6.95;6.13;;;;;;;;;;4985596;28;20073;-66
2022/08/31 14:01:52;;;;;;;7.65;6.80;;;;;;;;;;4986400;28;20030;-66
2022/08/31 14:04:47;;;;;;;6.32;5.63;;;;;;;;;;4986123;28;20093;-66
2022/08/31 14:07:19;;;;;;;;;;;;;;;;;;4968993;28;20417;-66
2022/08/31 14:09:48;;;;;;;6.75;6.13;;;;;;;;;;4986814;28;19910;-66
2022/08/31 14:12:35;;;;;;;7.60;6.57;;;;;;;;;;4985843;28;20469;-66
2022/08/31 14:15:20;;;;;;;7.30;6.57;;;;;;;;;;4985906;28;20022;-65
2022/08/31 14:17:46;;;;;;;6.78;6.18;;;;;;;;;;4946527;28;20038;-65
2022/08/31 14:20:32;;;;;;;6.65;6.05;;;;;;;;;;4986195;28;20038;-65
2022/08/31 14:23:16;;;;;;;9.55;6.32;;;;;;;;;;4986036;28;20026;-66
2022/08/31 14:25:41;;;;;;;6.85;6.10;;;;;;;;;;4985879;28;20064;-63
2022/08/31 14:28:07;;;;;;;7.20;6.45;;;;;;;;;;4959190;28;20447;-65
2022/08/31 14:30:34;;;;;;;7.35;6.57;;;;;;;;;;4986376;28;20030;-64
2022/08/31 14:32:59;;;;;;;6.82;6.22;;;;;;;;;;4985971;28;20914;-61
2022/08/31 14:35:25;;;;;;;6.88;6.28;;;;;;;;;;4965305;28;20062;-61
2022/08/31 14:37:51;;;;;;;7.25;6.57;;;;;;;;;;4967085;28;20400;-67
2022/08/31 14:40:36;;;;;;;6.75;6.28;;;;;;;;;;4967304;28;20027;-67
2022/08/31 14:43:01;;;;;;;;;;;;;;;;;;4966592;28;20523;-66
2022/08/31 14:45:27;;;;;;;9.80;7.55;;;;;;;;;;4967782;28;20034;-66
2022/08/31 14:47:58;;;;;;;7.32;6.63;;;;;;;;;;4964544;28;20038;-66
2022/08/31 14:50:26;;;;;;;7.28;6.68;;;;;;;;;;4966900;28;20572;-66
2022/08/31 14:52:53;;;;;;;7.82;6.47;;;;;;;;;;4966892;28;20385;-65
2022/08/31 14:55:19;;;;;;;7.72;6.70;;;;;;;;;;4966400;28;20038;-65
2022/08/31 14:57:45;;;;;;;8.70;7.15;;;;;;;;;;4965706;28;20026;-66
2022/08/31 15:00:12;;;;;;;7.57;6.97;;;;;;;;;;4966737;28;20045;-66
2022/08/31 15:02:37;;;;;;;9.43;7.55;;;;;;;;;;4965505;28;20035;-66
2022/08/31 15:05:05;;;;;;;8.35;7.65;;;;;;;;;;4980047;28;20041;-66
2022/08/31 15:07:31;;;;;;;7.70;6.90;;;;;;;;;;4965941;28;20060;-67
2022/08/31 15:09:57;;;;;;;7.72;7.03;;;;;;;;;;4955118;28;20027;-66
2022/08/31 15:12:22;;;;;;;9.18;6.80;;;;;;;;;;4966137;28;20022;-66
2022/08/31 15:14:49;;;;;;;8.00;7.25;;;;;;;;;;4964970;28;20081;-66
2022/08/31 15:17:15;;;;;;;8.38;7.50;;;;;;;;;;4964739;28;20027;-67
2022/08/31 15:19:42;;;;;;;7.32;6.82;;;;;;;;;;4966094;28;20037;-66
2022/08/31 15:22:08;;;;;;;7.70;7.00;;;;;;;;;;4965427;28;20142;-66
2022/08/31 15:24:34;;;;;;;9.15;7.93;;;;;;;;;;4964808;28;20038;-67
2022/08/31 15:27:00;;;;;;;8.23;7.45;;;;;;;;;;4965419;28;20030;-67
2022/08/31 15:29:29;;;;;;;8.82;8.13;;;;;;;;;;4966417;28;20493;-66
2022/08/31 15:31:56;;;;;;;7.85;7.15;;;;;;;;;;4966307;28;20034;-65
2022/08/31 15:34:23;;;;;;;7.72;7.05;;;;;;;;;;4974454;28;20073;-65